sensor_id;sensor_type;location;lat;lon;timestamp;P1;durP1;ratioP1;P2;durP2;ratioP2
8650;SDS011;4363;52.346;14.516;2022-11-15T00:01:35;241.33;;;78.67;;
8650;SDS011;4363;52.346;14.516;2022-11-15T00:04:04;306.70;;;94.73;;
8650;SDS011;4363;52.346;14.516;2022-11-15T00:06:30;386.20;;;108.47;;
8650;SDS011;4363;52.346;14.516;2022-11-15T00:09:00;229.53;;;65.80;;
8650;SDS011;4363;52.346;14.516;2022-11-15T00:11:26;391.40;;;108.00;;
8650;SDS011;4363;52.346;14.516;2022-11-15T00:13:55;273.47;;;79.00;;
8650;SDS011;4363;52.346;14.516;2022-11-15T00:16:22;332.03;;;85.33;;
8650;SDS011;4363;52.346;14.516;2022-11-15T00:18:48;194.93;;;57.50;;
8650;SDS011;4363;52.346;14.516;2022-11-15T00:21:14;284.20;;;82.50;;
8650;SDS011;4363;52.346;14.516;2022-11-15T00:23:40;344.90;;;92.47;;
8650;SDS011;4363;52.346;14.516;2022-11-15T00:26:06;169.23;;;46.50;;
8650;SDS011;4363;52.346;14.516;2022-11-15T00:28:35;333.17;;;93.47;;
8650;SDS011;4363;52.346;14.516;2022-11-15T00:31:04;231.30;;;68.23;;
8650;SDS011;4363;52.346;14.516;2022-11-15T00:33:32;266.97;;;77.17;;
8650;SDS011;4363;52.346;14.516;2022-11-15T00:36:05;353.10;;;105.67;;
8650;SDS011;4363;52.346;14.516;2022-11-15T00:38:34;340.07;;;92.77;;
8650;SDS011;4363;52.346;14.516;2022-11-15T00:41:00;246.03;;;72.37;;
8650;SDS011;4363;52.346;14.516;2022-11-15T00:43:27;404.70;;;119.20;;
8650;SDS011;4363;52.346;14.516;2022-11-15T00:45:53;196.60;;;57.90;;
8650;SDS011;4363;52.346;14.516;2022-11-15T00:48:19;390.13;;;120.20;;
8650;SDS011;4363;52.346;14.516;2022-11-15T00:50:44;372.87;;;111.57;;
8650;SDS011;4363;52.346;14.516;2022-11-15T00:53:10;271.93;;;78.33;;
8650;SDS011;4363;52.346;14.516;2022-11-15T00:55:36;77.10;;;27.40;;
8650;SDS011;4363;52.346;14.516;2022-11-15T00:58:02;171.03;;;53.70;;
8650;SDS011;4363;52.346;14.516;2022-11-15T01:00:28;381.17;;;105.40;;
8650;SDS011;4363;52.346;14.516;2022-11-15T01:02:54;271.77;;;74.73;;
8650;SDS011;4363;52.346;14.516;2022-11-15T01:05:20;399.73;;;112.83;;
8650;SDS011;4363;52.346;14.516;2022-11-15T01:07:46;356.87;;;101.33;;
8650;SDS011;4363;52.346;14.516;2022-11-15T01:10:12;253.03;;;71.63;;
8650;SDS011;4363;52.346;14.516;2022-11-15T01:12:38;325.40;;;95.63;;
8650;SDS011;4363;52.346;14.516;2022-11-15T01:15:04;188.37;;;55.60;;
8650;SDS011;4363;52.346;14.516;2022-11-15T01:17:30;260.47;;;67.87;;
8650;SDS011;4363;52.346;14.516;2022-11-15T01:19:56;407.93;;;117.13;;
8650;SDS011;4363;52.346;14.516;2022-11-15T01:22:22;397.47;;;113.47;;
8650;SDS011;4363;52.346;14.516;2022-11-15T01:24:51;303.37;;;85.13;;
8650;SDS011;4363;52.346;14.516;2022-11-15T01:27:17;140.83;;;41.77;;
8650;SDS011;4363;52.346;14.516;2022-11-15T01:29:42;227.40;;;62.80;;
8650;SDS011;4363;52.346;14.516;2022-11-15T01:32:08;330.27;;;96.20;;
8650;SDS011;4363;52.346;14.516;2022-11-15T01:34:34;339.23;;;92.07;;
8650;SDS011;4363;52.346;14.516;2022-11-15T01:37:00;100.23;;;30.17;;
8650;SDS011;4363;52.346;14.516;2022-11-15T01:39:26;170.33;;;47.00;;
8650;SDS011;4363;52.346;14.516;2022-11-15T01:41:53;321.57;;;91.27;;
8650;SDS011;4363;52.346;14.516;2022-11-15T01:47:13;221.33;;;60.23;;
8650;SDS011;4363;52.346;14.516;2022-11-15T01:49:45;219.43;;;64.03;;
8650;SDS011;4363;52.346;14.516;2022-11-15T01:52:17;239.03;;;66.60;;
8650;SDS011;4363;52.346;14.516;2022-11-15T01:54:46;292.87;;;83.27;;
8650;SDS011;4363;52.346;14.516;2022-11-15T01:57:14;269.43;;;75.07;;
8650;SDS011;4363;52.346;14.516;2022-11-15T01:59:42;172.17;;;47.93;;
8650;SDS011;4363;52.346;14.516;2022-11-15T02:02:09;252.57;;;70.07;;
8650;SDS011;4363;52.346;14.516;2022-11-15T02:04:42;115.13;;;33.73;;
8650;SDS011;4363;52.346;14.516;2022-11-15T02:07:10;241.07;;;66.20;;
8650;SDS011;4363;52.346;14.516;2022-11-15T02:09:38;306.90;;;85.73;;
8650;SDS011;4363;52.346;14.516;2022-11-15T02:12:04;378.53;;;107.03;;
8650;SDS011;4363;52.346;14.516;2022-11-15T02:14:32;237.10;;;68.90;;
8650;SDS011;4363;52.346;14.516;2022-11-15T02:17:07;293.03;;;83.07;;
8650;SDS011;4363;52.346;14.516;2022-11-15T02:20:05;300.93;;;81.90;;
8650;SDS011;4363;52.346;14.516;2022-11-15T02:26:03;258.40;;;70.00;;
8650;SDS011;4363;52.346;14.516;2022-11-15T02:28:54;190.10;;;51.50;;
8650;SDS011;4363;52.346;14.516;2022-11-15T02:37:28;274.87;;;101.13;;
8650;SDS011;4363;52.346;14.516;2022-11-15T02:40:22;326.67;;;119.60;;
8650;SDS011;4363;52.346;14.516;2022-11-15T02:43:09;363.53;;;131.87;;
8650;SDS011;4363;52.346;14.516;2022-11-15T02:46:00;183.53;;;77.73;;
8650;SDS011;4363;52.346;14.516;2022-11-15T02:48:37;274.27;;;101.17;;
8650;SDS011;4363;52.346;14.516;2022-11-15T02:51:03;270.17;;;99.13;;
8650;SDS011;4363;52.346;14.516;2022-11-15T02:53:29;373.77;;;132.17;;
8650;SDS011;4363;52.346;14.516;2022-11-15T02:55:55;178.33;;;73.93;;
8650;SDS011;4363;52.346;14.516;2022-11-15T03:01:33;345.53;;;128.87;;
8650;SDS011;4363;52.346;14.516;2022-11-15T03:06:44;162.87;;;72.43;;
8650;SDS011;4363;52.346;14.516;2022-11-15T03:09:26;267.13;;;94.20;;
8650;SDS011;4363;52.346;14.516;2022-11-15T03:12:12;355.20;;;120.83;;
8650;SDS011;4363;52.346;14.516;2022-11-15T03:15:00;205.07;;;83.30;;
8650;SDS011;4363;52.346;14.516;2022-11-15T03:17:33;400.50;;;140.57;;
8650;SDS011;4363;52.346;14.516;2022-11-15T03:20:04;378.03;;;128.77;;
8650;SDS011;4363;52.346;14.516;2022-11-15T03:22:34;346.20;;;112.93;;
8650;SDS011;4363;52.346;14.516;2022-11-15T03:25:04;175.60;;;68.63;;
8650;SDS011;4363;52.346;14.516;2022-11-15T03:27:35;242.60;;;85.03;;
8650;SDS011;4363;52.346;14.516;2022-11-15T03:30:05;265.60;;;90.53;;
8650;SDS011;4363;52.346;14.516;2022-11-15T03:32:37;379.50;;;121.27;;
8650;SDS011;4363;52.346;14.516;2022-11-15T03:35:21;226.07;;;81.67;;
8650;SDS011;4363;52.346;14.516;2022-11-15T03:37:58;371.77;;;127.33;;
8650;SDS011;4363;52.346;14.516;2022-11-15T03:40:40;410.27;;;128.83;;
8650;SDS011;4363;52.346;14.516;2022-11-15T03:43:10;254.63;;;83.83;;
8650;SDS011;4363;52.346;14.516;2022-11-15T03:46:01;207.63;;;71.77;;
8650;SDS011;4363;52.346;14.516;2022-11-15T03:48:33;299.47;;;95.73;;
8650;SDS011;4363;52.346;14.516;2022-11-15T03:51:02;320.90;;;96.20;;
8650;SDS011;4363;52.346;14.516;2022-11-15T03:53:29;302.77;;;97.20;;
8650;SDS011;4363;52.346;14.516;2022-11-15T03:55:56;309.17;;;97.90;;
8650;SDS011;4363;52.346;14.516;2022-11-15T03:58:22;267.37;;;90.50;;
8650;SDS011;4363;52.346;14.516;2022-11-15T04:00:48;148.30;;;56.37;;
8650;SDS011;4363;52.346;14.516;2022-11-15T04:03:14;319.63;;;102.70;;
8650;SDS011;4363;52.346;14.516;2022-11-15T04:05:40;292.23;;;96.67;;
8650;SDS011;4363;52.346;14.516;2022-11-15T04:08:05;299.30;;;92.23;;
8650;SDS011;4363;52.346;14.516;2022-11-15T04:10:31;325.20;;;102.37;;
8650;SDS011;4363;52.346;14.516;2022-11-15T04:12:57;313.13;;;100.93;;
8650;SDS011;4363;52.346;14.516;2022-11-15T04:15:23;327.23;;;96.87;;
8650;SDS011;4363;52.346;14.516;2022-11-15T04:17:50;231.83;;;77.10;;
8650;SDS011;4363;52.346;14.516;2022-11-15T04:23:03;330.60;;;105.10;;
8650;SDS011;4363;52.346;14.516;2022-11-15T04:25:53;166.40;;;58.23;;
8650;SDS011;4363;52.346;14.516;2022-11-15T04:28:20;224.07;;;73.40;;
8650;SDS011;4363;52.346;14.516;2022-11-15T04:30:46;309.13;;;94.73;;
8650;SDS011;4363;52.346;14.516;2022-11-15T04:33:12;176.83;;;62.13;;
8650;SDS011;4363;52.346;14.516;2022-11-15T04:35:38;254.90;;;87.07;;
8650;SDS011;4363;52.346;14.516;2022-11-15T04:38:06;193.33;;;70.93;;
8650;SDS011;4363;52.346;14.516;2022-11-15T04:40:33;287.57;;;87.83;;
8650;SDS011;4363;52.346;14.516;2022-11-15T04:42:58;260.37;;;85.00;;
8650;SDS011;4363;52.346;14.516;2022-11-15T04:45:24;372.10;;;132.77;;
8650;SDS011;4363;52.346;14.516;2022-11-15T04:47:49;330.00;;;140.10;;
8650;SDS011;4363;52.346;14.516;2022-11-15T04:50:15;382.87;;;156.13;;
8650;SDS011;4363;52.346;14.516;2022-11-15T04:52:42;473.00;;;174.13;;
8650;SDS011;4363;52.346;14.516;2022-11-15T04:55:09;289.60;;;117.83;;
8650;SDS011;4363;52.346;14.516;2022-11-15T04:57:35;229.37;;;104.63;;
8650;SDS011;4363;52.346;14.516;2022-11-15T05:00:05;263.27;;;107.37;;
8650;SDS011;4363;52.346;14.516;2022-11-15T05:02:33;310.80;;;125.33;;
8650;SDS011;4363;52.346;14.516;2022-11-15T05:05:18;344.80;;;135.87;;
8650;SDS011;4363;52.346;14.516;2022-11-15T05:07:44;467.63;;;184.43;;
8650;SDS011;4363;52.346;14.516;2022-11-15T05:10:09;349.80;;;145.67;;
8650;SDS011;4363;52.346;14.516;2022-11-15T05:12:35;369.20;;;144.63;;
8650;SDS011;4363;52.346;14.516;2022-11-15T05:15:01;351.43;;;128.03;;
8650;SDS011;4363;52.346;14.516;2022-11-15T05:17:27;371.73;;;138.60;;
8650;SDS011;4363;52.346;14.516;2022-11-15T05:19:53;505.17;;;176.97;;
8650;SDS011;4363;52.346;14.516;2022-11-15T05:22:19;259.43;;;107.10;;
8650;SDS011;4363;52.346;14.516;2022-11-15T05:24:45;292.63;;;113.23;;
8650;SDS011;4363;52.346;14.516;2022-11-15T05:27:11;320.33;;;120.27;;
8650;SDS011;4363;52.346;14.516;2022-11-15T05:29:37;360.27;;;135.63;;
8650;SDS011;4363;52.346;14.516;2022-11-15T05:32:03;397.67;;;146.47;;
8650;SDS011;4363;52.346;14.516;2022-11-15T05:34:31;247.17;;;109.53;;
8650;SDS011;4363;52.346;14.516;2022-11-15T05:36:57;349.23;;;128.97;;
8650;SDS011;4363;52.346;14.516;2022-11-15T05:39:24;323.23;;;128.47;;
8650;SDS011;4363;52.346;14.516;2022-11-15T05:41:59;397.57;;;132.47;;
8650;SDS011;4363;52.346;14.516;2022-11-15T05:44:35;425.60;;;154.53;;
8650;SDS011;4363;52.346;14.516;2022-11-15T05:47:01;433.43;;;155.07;;
8650;SDS011;4363;52.346;14.516;2022-11-15T05:49:29;169.70;;;83.90;;
8650;SDS011;4363;52.346;14.516;2022-11-15T05:51:57;274.97;;;105.40;;
8650;SDS011;4363;52.346;14.516;2022-11-15T05:54:23;270.83;;;107.07;;
8650;SDS011;4363;52.346;14.516;2022-11-15T05:56:49;381.10;;;127.23;;
8650;SDS011;4363;52.346;14.516;2022-11-15T05:59:15;271.27;;;117.70;;
8650;SDS011;4363;52.346;14.516;2022-11-15T06:01:41;444.93;;;159.00;;
8650;SDS011;4363;52.346;14.516;2022-11-15T06:04:07;283.97;;;113.27;;
8650;SDS011;4363;52.346;14.516;2022-11-15T06:06:33;157.07;;;80.23;;
8650;SDS011;4363;52.346;14.516;2022-11-15T06:08:59;329.00;;;123.03;;
8650;SDS011;4363;52.346;14.516;2022-11-15T06:11:25;404.50;;;155.77;;
8650;SDS011;4363;52.346;14.516;2022-11-15T06:13:51;379.40;;;145.60;;
8650;SDS011;4363;52.346;14.516;2022-11-15T06:16:17;307.50;;;127.03;;
8650;SDS011;4363;52.346;14.516;2022-11-15T06:18:43;339.70;;;133.17;;
8650;SDS011;4363;52.346;14.516;2022-11-15T06:21:09;349.30;;;132.97;;
8650;SDS011;4363;52.346;14.516;2022-11-15T06:23:35;491.53;;;177.07;;
8650;SDS011;4363;52.346;14.516;2022-11-15T06:26:01;381.90;;;142.63;;
8650;SDS011;4363;52.346;14.516;2022-11-15T06:28:28;431.63;;;155.43;;
8650;SDS011;4363;52.346;14.516;2022-11-15T06:30:55;198.90;;;95.43;;
8650;SDS011;4363;52.346;14.516;2022-11-15T06:33:21;177.33;;;92.43;;
8650;SDS011;4363;52.346;14.516;2022-11-15T06:35:47;342.63;;;130.67;;
8650;SDS011;4363;52.346;14.516;2022-11-15T06:38:13;405.60;;;156.20;;
8650;SDS011;4363;52.346;14.516;2022-11-15T06:40:39;523.67;;;191.00;;
8650;SDS011;4363;52.346;14.516;2022-11-15T06:43:05;381.83;;;143.13;;
8650;SDS011;4363;52.346;14.516;2022-11-15T06:45:31;294.80;;;116.63;;
8650;SDS011;4363;52.346;14.516;2022-11-15T06:47:57;204.47;;;93.30;;
8650;SDS011;4363;52.346;14.516;2022-11-15T06:50:23;408.13;;;159.70;;
8650;SDS011;4363;52.346;14.516;2022-11-15T06:52:49;401.87;;;160.37;;
8650;SDS011;4363;52.346;14.516;2022-11-15T06:55:15;309.30;;;129.60;;
8650;SDS011;4363;52.346;14.516;2022-11-15T06:57:48;367.90;;;137.70;;
8650;SDS011;4363;52.346;14.516;2022-11-15T07:00:15;294.43;;;115.47;;
8650;SDS011;4363;52.346;14.516;2022-11-15T07:02:42;331.27;;;130.17;;
8650;SDS011;4363;52.346;14.516;2022-11-15T07:05:07;332.37;;;134.83;;
8650;SDS011;4363;52.346;14.516;2022-11-15T07:07:33;301.80;;;118.67;;
8650;SDS011;4363;52.346;14.516;2022-11-15T07:09:59;342.97;;;133.03;;
8650;SDS011;4363;52.346;14.516;2022-11-15T07:12:25;317.00;;;128.43;;
8650;SDS011;4363;52.346;14.516;2022-11-15T07:14:51;296.93;;;128.53;;
8650;SDS011;4363;52.346;14.516;2022-11-15T07:17:17;404.67;;;159.57;;
8650;SDS011;4363;52.346;14.516;2022-11-15T07:19:42;372.03;;;143.40;;
8650;SDS011;4363;52.346;14.516;2022-11-15T07:22:08;333.27;;;139.57;;
8650;SDS011;4363;52.346;14.516;2022-11-15T07:24:34;361.93;;;137.07;;
8650;SDS011;4363;52.346;14.516;2022-11-15T07:27:00;310.73;;;132.33;;
8650;SDS011;4363;52.346;14.516;2022-11-15T07:29:25;295.97;;;125.50;;
8650;SDS011;4363;52.346;14.516;2022-11-15T07:31:51;212.03;;;105.10;;
8650;SDS011;4363;52.346;14.516;2022-11-15T07:34:17;317.50;;;130.23;;
8650;SDS011;4363;52.346;14.516;2022-11-15T07:36:43;370.07;;;148.47;;
8650;SDS011;4363;52.346;14.516;2022-11-15T07:39:09;194.20;;;97.77;;
8650;SDS011;4363;52.346;14.516;2022-11-15T07:41:37;247.43;;;110.13;;
8650;SDS011;4363;52.346;14.516;2022-11-15T07:44:03;443.20;;;184.47;;
8650;SDS011;4363;52.346;14.516;2022-11-15T07:46:29;338.27;;;136.50;;
8650;SDS011;4363;52.346;14.516;2022-11-15T07:48:55;326.53;;;137.50;;
8650;SDS011;4363;52.346;14.516;2022-11-15T07:51:21;316.20;;;134.27;;
8650;SDS011;4363;52.346;14.516;2022-11-15T07:53:47;324.47;;;131.40;;
8650;SDS011;4363;52.346;14.516;2022-11-15T07:56:13;163.77;;;88.80;;
8650;SDS011;4363;52.346;14.516;2022-11-15T07:58:39;460.50;;;185.00;;
8650;SDS011;4363;52.346;14.516;2022-11-15T08:01:05;212.63;;;98.00;;
8650;SDS011;4363;52.346;14.516;2022-11-15T08:03:32;249.07;;;110.43;;
8650;SDS011;4363;52.346;14.516;2022-11-15T08:05:58;407.60;;;164.87;;
8650;SDS011;4363;52.346;14.516;2022-11-15T08:08:24;361.00;;;148.10;;
8650;SDS011;4363;52.346;14.516;2022-11-15T08:10:50;254.90;;;112.03;;
8650;SDS011;4363;52.346;14.516;2022-11-15T08:13:15;218.90;;;105.93;;
8650;SDS011;4363;52.346;14.516;2022-11-15T08:15:41;380.03;;;149.77;;
8650;SDS011;4363;52.346;14.516;2022-11-15T08:18:12;251.43;;;112.70;;
8650;SDS011;4363;52.346;14.516;2022-11-15T08:20:40;393.30;;;163.30;;
8650;SDS011;4363;52.346;14.516;2022-11-15T08:23:06;179.67;;;96.50;;
8650;SDS011;4363;52.346;14.516;2022-11-15T08:25:32;357.93;;;157.20;;
8650;SDS011;4363;52.346;14.516;2022-11-15T08:28:00;261.80;;;122.03;;
8650;SDS011;4363;52.346;14.516;2022-11-15T08:30:28;494.53;;;196.80;;
8650;SDS011;4363;52.346;14.516;2022-11-15T08:32:55;321.07;;;133.70;;
8650;SDS011;4363;52.346;14.516;2022-11-15T08:35:22;266.73;;;119.30;;
8650;SDS011;4363;52.346;14.516;2022-11-15T08:37:48;290.83;;;129.17;;
8650;SDS011;4363;52.346;14.516;2022-11-15T08:40:14;198.43;;;104.00;;
8650;SDS011;4363;52.346;14.516;2022-11-15T08:42:40;326.03;;;137.23;;
8650;SDS011;4363;52.346;14.516;2022-11-15T08:45:07;273.53;;;127.43;;
8650;SDS011;4363;52.346;14.516;2022-11-15T08:47:33;305.73;;;132.93;;
8650;SDS011;4363;52.346;14.516;2022-11-15T08:49:59;288.50;;;129.03;;
8650;SDS011;4363;52.346;14.516;2022-11-15T08:52:25;295.57;;;128.60;;
8650;SDS011;4363;52.346;14.516;2022-11-15T08:54:51;523.97;;;210.63;;
8650;SDS011;4363;52.346;14.516;2022-11-15T08:57:17;459.10;;;188.63;;
8650;SDS011;4363;52.346;14.516;2022-11-15T08:59:43;379.30;;;161.53;;
8650;SDS011;4363;52.346;14.516;2022-11-15T09:02:11;409.43;;;174.57;;
8650;SDS011;4363;52.346;14.516;2022-11-15T09:04:41;464.07;;;194.03;;
8650;SDS011;4363;52.346;14.516;2022-11-15T09:07:08;251.20;;;120.00;;
8650;SDS011;4363;52.346;14.516;2022-11-15T09:09:34;282.90;;;127.13;;
8650;SDS011;4363;52.346;14.516;2022-11-15T09:12:00;394.87;;;160.43;;
8650;SDS011;4363;52.346;14.516;2022-11-15T09:14:26;258.87;;;123.40;;
8650;SDS011;4363;52.346;14.516;2022-11-15T09:16:52;467.13;;;188.03;;
8650;SDS011;4363;52.346;14.516;2022-11-15T09:19:18;275.03;;;127.90;;
8650;SDS011;4363;52.346;14.516;2022-11-15T09:21:44;260.23;;;118.00;;
8650;SDS011;4363;52.346;14.516;2022-11-15T09:24:10;241.47;;;117.23;;
8650;SDS011;4363;52.346;14.516;2022-11-15T09:26:36;364.87;;;148.97;;
8650;SDS011;4363;52.346;14.516;2022-11-15T09:29:02;314.57;;;136.40;;
8650;SDS011;4363;52.346;14.516;2022-11-15T09:31:28;228.97;;;114.70;;
8650;SDS011;4363;52.346;14.516;2022-11-15T09:33:54;317.93;;;140.37;;
8650;SDS011;4363;52.346;14.516;2022-11-15T09:36:20;241.77;;;115.77;;
8650;SDS011;4363;52.346;14.516;2022-11-15T09:38:46;230.07;;;115.00;;
8650;SDS011;4363;52.346;14.516;2022-11-15T09:43:42;319.30;;;138.80;;
8650;SDS011;4363;52.346;14.516;2022-11-15T09:46:13;218.90;;;110.13;;
8650;SDS011;4363;52.346;14.516;2022-11-15T09:48:56;314.10;;;141.73;;
8650;SDS011;4363;52.346;14.516;2022-11-15T09:54:09;315.80;;;147.50;;
8650;SDS011;4363;52.346;14.516;2022-11-15T09:56:38;366.10;;;151.43;;
8650;SDS011;4363;52.346;14.516;2022-11-15T10:04:15;443.03;;;185.50;;
8650;SDS011;4363;52.346;14.516;2022-11-15T10:06:54;272.53;;;127.17;;
8650;SDS011;4363;52.346;14.516;2022-11-15T10:09:23;377.97;;;156.23;;
8650;SDS011;4363;52.346;14.516;2022-11-15T10:11:49;379.87;;;173.57;;
8650;SDS011;4363;52.346;14.516;2022-11-15T10:14:20;222.80;;;115.60;;
8650;SDS011;4363;52.346;14.516;2022-11-15T10:16:57;385.03;;;169.13;;
8650;SDS011;4363;52.346;14.516;2022-11-15T10:19:28;334.83;;;151.97;;
8650;SDS011;4363;52.346;14.516;2022-11-15T10:22:40;292.87;;;139.77;;
8650;SDS011;4363;52.346;14.516;2022-11-15T10:24:46;299.63;;;141.70;;
8650;SDS011;4363;52.346;14.516;2022-11-15T10:27:16;342.50;;;157.80;;
8650;SDS011;4363;52.346;14.516;2022-11-15T10:29:43;319.13;;;148.57;;
8650;SDS011;4363;52.346;14.516;2022-11-15T10:32:10;353.43;;;159.23;;
8650;SDS011;4363;52.346;14.516;2022-11-15T10:34:36;369.17;;;167.93;;
8650;SDS011;4363;52.346;14.516;2022-11-15T10:37:02;343.13;;;155.50;;
8650;SDS011;4363;52.346;14.516;2022-11-15T10:39:28;383.83;;;166.43;;
8650;SDS011;4363;52.346;14.516;2022-11-15T10:41:54;323.50;;;148.20;;
8650;SDS011;4363;52.346;14.516;2022-11-15T10:44:25;466.63;;;191.70;;
8650;SDS011;4363;52.346;14.516;2022-11-15T10:49:26;432.77;;;176.37;;
8650;SDS011;4363;52.346;14.516;2022-11-15T10:52:00;338.40;;;153.70;;
8650;SDS011;4363;52.346;14.516;2022-11-15T10:54:40;353.57;;;162.50;;
8650;SDS011;4363;52.346;14.516;2022-11-15T10:57:16;378.67;;;159.83;;
8650;SDS011;4363;52.346;14.516;2022-11-15T10:59:50;385.60;;;165.30;;
8650;SDS011;4363;52.346;14.516;2022-11-15T11:04:55;518.93;;;205.77;;
8650;SDS011;4363;52.346;14.516;2022-11-15T11:07:25;413.20;;;170.60;;
8650;SDS011;4363;52.346;14.516;2022-11-15T11:12:49;504.07;;;227.23;;
8650;SDS011;4363;52.346;14.516;2022-11-15T11:15:16;481.17;;;198.57;;
8650;SDS011;4363;52.346;14.516;2022-11-15T11:22:57;424.80;;;173.03;;
8650;SDS011;4363;52.346;14.516;2022-11-15T11:33:26;418.63;;;181.17;;
8650;SDS011;4363;52.346;14.516;2022-11-15T11:38:36;554.33;;;233.13;;
8650;SDS011;4363;52.346;14.516;2022-11-15T11:41:24;501.43;;;206.20;;
8650;SDS011;4363;52.346;14.516;2022-11-15T11:44:05;489.67;;;217.03;;
8650;SDS011;4363;52.346;14.516;2022-11-15T11:49:12;555.40;;;252.00;;
8650;SDS011;4363;52.346;14.516;2022-11-15T11:51:42;512.33;;;211.97;;
8650;SDS011;4363;52.346;14.516;2022-11-15T11:54:13;704.37;;;297.20;;
8650;SDS011;4363;52.346;14.516;2022-11-15T11:56:41;486.10;;;205.20;;
8650;SDS011;4363;52.346;14.516;2022-11-15T11:59:36;699.57;;;290.10;;
8650;SDS011;4363;52.346;14.516;2022-11-15T12:01:53;479.80;;;210.83;;
8650;SDS011;4363;52.346;14.516;2022-11-15T12:14:33;469.17;;;204.43;;
8650;SDS011;4363;52.346;14.516;2022-11-15T12:17:01;416.37;;;189.77;;
8650;SDS011;4363;52.346;14.516;2022-11-15T12:19:28;465.27;;;210.10;;
8650;SDS011;4363;52.346;14.516;2022-11-15T12:24:24;462.63;;;210.23;;
8650;SDS011;4363;52.346;14.516;2022-11-15T12:26:54;509.47;;;225.60;;
8650;SDS011;4363;52.346;14.516;2022-11-15T12:31:51;512.83;;;225.93;;
8650;SDS011;4363;52.346;14.516;2022-11-15T12:36:48;536.20;;;243.03;;
8650;SDS011;4363;52.346;14.516;2022-11-15T12:39:14;433.10;;;197.93;;
8650;SDS011;4363;52.346;14.516;2022-11-15T12:41:42;504.80;;;234.33;;
8650;SDS011;4363;52.346;14.516;2022-11-15T12:44:12;413.83;;;195.60;;
8650;SDS011;4363;52.346;14.516;2022-11-15T12:49:09;498.10;;;238.27;;
8650;SDS011;4363;52.346;14.516;2022-11-15T13:02:23;439.30;;;231.15;;
8650;SDS011;4363;52.346;14.516;2022-11-15T13:04:51;482.10;;;259.13;;
8650;SDS011;4363;52.346;14.516;2022-11-15T13:17:40;437.35;;;297.08;;
8650;SDS011;4363;52.346;14.516;2022-11-15T13:30:40;426.20;;;276.17;;
8650;SDS011;4363;52.346;14.516;2022-11-15T13:33:08;432.80;;;276.17;;
8650;SDS011;4363;52.346;14.516;2022-11-15T13:35:35;363.80;;;239.63;;
8650;SDS011;4363;52.346;14.516;2022-11-15T13:38:03;351.88;;;228.45;;
8650;SDS011;4363;52.346;14.516;2022-11-15T13:40:34;356.25;;;236.85;;
8650;SDS011;4363;52.346;14.516;2022-11-15T13:43:17;323.30;;;206.65;;
8650;SDS011;4363;52.346;14.516;2022-11-15T13:45:43;476.20;;;268.02;;
8650;SDS011;4363;52.346;14.516;2022-11-15T13:48:09;250.82;;;170.40;;
8650;SDS011;4363;52.346;14.516;2022-11-15T13:50:36;400.08;;;226.93;;
8650;SDS011;4363;52.346;14.516;2022-11-15T13:53:03;402.77;;;224.40;;
8650;SDS011;4363;52.346;14.516;2022-11-15T13:55:30;424.05;;;228.25;;
8650;SDS011;4363;52.346;14.516;2022-11-15T13:57:58;295.77;;;174.35;;
8650;SDS011;4363;52.346;14.516;2022-11-15T14:00:40;280.92;;;166.18;;
8650;SDS011;4363;52.346;14.516;2022-11-15T14:05:34;268.20;;;159.73;;
8650;SDS011;4363;52.346;14.516;2022-11-15T14:08:05;180.35;;;124.47;;
8650;SDS011;4363;52.346;14.516;2022-11-15T14:10:38;286.25;;;153.05;;
8650;SDS011;4363;52.346;14.516;2022-11-15T14:13:09;173.35;;;118.55;;
8650;SDS011;4363;52.346;14.516;2022-11-15T14:15:37;238.57;;;137.57;;
8650;SDS011;4363;52.346;14.516;2022-11-15T14:18:03;290.67;;;145.98;;
8650;SDS011;4363;52.346;14.516;2022-11-15T14:20:35;181.20;;;111.30;;
8650;SDS011;4363;52.346;14.516;2022-11-15T14:23:05;278.20;;;135.70;;
8650;SDS011;4363;52.346;14.516;2022-11-15T14:25:51;264.65;;;143.82;;
8650;SDS011;4363;52.346;14.516;2022-11-15T14:30:50;354.73;;;181.30;;
8650;SDS011;4363;52.346;14.516;2022-11-15T14:33:27;231.17;;;141.80;;
8650;SDS011;4363;52.346;14.516;2022-11-15T14:35:54;529.97;;;262.73;;
8650;SDS011;4363;52.346;14.516;2022-11-15T14:38:22;264.87;;;147.37;;
8650;SDS011;4363;52.346;14.516;2022-11-15T14:40:48;214.43;;;128.23;;
8650;SDS011;4363;52.346;14.516;2022-11-15T14:43:14;199.33;;;123.67;;
8650;SDS011;4363;52.346;14.516;2022-11-15T14:45:40;382.90;;;190.10;;
8650;SDS011;4363;52.346;14.516;2022-11-15T14:48:06;461.27;;;217.73;;
8650;SDS011;4363;52.346;14.516;2022-11-15T14:50:32;418.33;;;200.97;;
8650;SDS011;4363;52.346;14.516;2022-11-15T14:52:59;429.67;;;206.53;;
8650;SDS011;4363;52.346;14.516;2022-11-15T14:55:26;355.63;;;171.30;;
8650;SDS011;4363;52.346;14.516;2022-11-15T14:57:57;297.07;;;145.37;;
8650;SDS011;4363;52.346;14.516;2022-11-15T15:00:23;383.43;;;179.23;;
8650;SDS011;4363;52.346;14.516;2022-11-15T15:02:50;312.00;;;156.10;;
8650;SDS011;4363;52.346;14.516;2022-11-15T15:07:43;313.97;;;157.27;;
8650;SDS011;4363;52.346;14.516;2022-11-15T15:10:09;359.07;;;170.20;;
8650;SDS011;4363;52.346;14.516;2022-11-15T15:12:36;356.73;;;149.90;;
8650;SDS011;4363;52.346;14.516;2022-11-15T15:15:02;461.73;;;198.30;;
8650;SDS011;4363;52.346;14.516;2022-11-15T15:17:28;402.60;;;172.40;;
8650;SDS011;4363;52.346;14.516;2022-11-15T15:19:54;301.60;;;140.17;;
8650;SDS011;4363;52.346;14.516;2022-11-15T15:22:20;299.17;;;143.63;;
8650;SDS011;4363;52.346;14.516;2022-11-15T15:24:47;247.70;;;127.60;;
8650;SDS011;4363;52.346;14.516;2022-11-15T15:27:13;294.20;;;137.00;;
8650;SDS011;4363;52.346;14.516;2022-11-15T15:29:40;200.23;;;106.80;;
8650;SDS011;4363;52.346;14.516;2022-11-15T15:32:06;347.93;;;155.00;;
8650;SDS011;4363;52.346;14.516;2022-11-15T15:34:32;354.00;;;165.70;;
8650;SDS011;4363;52.346;14.516;2022-11-15T15:37:19;285.17;;;138.03;;
8650;SDS011;4363;52.346;14.516;2022-11-15T15:39:50;274.00;;;132.33;;
8650;SDS011;4363;52.346;14.516;2022-11-15T15:42:16;295.87;;;138.30;;
8650;SDS011;4363;52.346;14.516;2022-11-15T15:44:42;338.57;;;155.23;;
8650;SDS011;4363;52.346;14.516;2022-11-15T15:47:12;344.07;;;156.10;;
8650;SDS011;4363;52.346;14.516;2022-11-15T15:49:39;300.83;;;135.97;;
8650;SDS011;4363;52.346;14.516;2022-11-15T15:52:05;269.93;;;127.77;;
8650;SDS011;4363;52.346;14.516;2022-11-15T15:54:31;341.20;;;151.77;;
8650;SDS011;4363;52.346;14.516;2022-11-15T15:56:57;285.00;;;135.57;;
8650;SDS011;4363;52.346;14.516;2022-11-15T15:59:23;414.23;;;178.60;;
8650;SDS011;4363;52.346;14.516;2022-11-15T16:01:49;417.87;;;176.20;;
8650;SDS011;4363;52.346;14.516;2022-11-15T16:04:15;321.63;;;145.50;;
8650;SDS011;4363;52.346;14.516;2022-11-15T16:06:41;448.10;;;192.23;;
8650;SDS011;4363;52.346;14.516;2022-11-15T16:09:18;209.03;;;109.90;;
8650;SDS011;4363;52.346;14.516;2022-11-15T16:12:07;249.13;;;119.90;;
8650;SDS011;4363;52.346;14.516;2022-11-15T16:14:33;303.07;;;141.30;;
8650;SDS011;4363;52.346;14.516;2022-11-15T16:16:59;309.37;;;141.83;;